createdAt,value
2017-10-19T00:01:27.536Z,82.63
2017-10-19T00:03:55.147Z,82.57
2017-10-19T00:06:22.810Z,82.71
2017-10-19T00:08:50.595Z,82.94
2017-10-19T00:11:18.264Z,83.18
2017-10-19T00:13:45.936Z,83.35
2017-10-19T00:16:13.602Z,83.40
2017-10-19T00:18:41.282Z,83.07
2017-10-19T00:21:08.896Z,82.62
2017-10-19T00:23:36.557Z,82.30
2017-10-19T00:26:04.170Z,83.03
2017-10-19T00:28:31.784Z,83.54
2017-10-19T00:30:59.469Z,83.72
2017-10-19T00:33:27.093Z,83.65
2017-10-19T00:35:54.703Z,83.87
2017-10-19T00:38:22.364Z,83.77
2017-10-19T00:40:49.975Z,83.65
2017-10-19T00:43:17.583Z,83.41
2017-10-19T00:45:45.252Z,83.13
2017-10-19T00:48:12.864Z,83.80
2017-10-19T00:50:40.544Z,83.14
2017-10-19T00:53:08.221Z,82.93
2017-10-19T00:55:35.871Z,83.42
2017-10-19T00:58:03.502Z,83.68
2017-10-19T01:00:31.195Z,84.18
2017-10-19T01:02:58.807Z,84.30
2017-10-19T01:05:26.415Z,84.07
2017-10-19T01:07:54.135Z,83.95
2017-10-19T01:10:21.750Z,83.98
2017-10-19T01:12:49.371Z,84.17
2017-10-19T01:15:17.035Z,84.34
2017-10-19T01:17:44.655Z,84.34
2017-10-19T01:20:12.276Z,83.98
2017-10-19T01:22:40.007Z,83.34
2017-10-19T01:25:07.667Z,83.44
2017-10-19T01:27:35.285Z,83.82
2017-10-19T01:30:02.973Z,84.27
2017-10-19T01:32:30.591Z,84.37
2017-10-19T01:34:58.200Z,84.23
2017-10-19T01:37:25.970Z,84.16
2017-10-19T01:39:53.715Z,84.06
2017-10-19T01:42:21.391Z,84.30
2017-10-19T01:44:49.055Z,84.41
2017-10-19T01:47:16.675Z,84.12
2017-10-19T01:49:56.311Z,83.58
2017-10-19T01:52:23.976Z,83.68
2017-10-19T01:54:51.635Z,84.03
2017-10-19T01:57:19.460Z,84.21
2017-10-19T01:59:47.128Z,84.14
2017-10-19T02:02:14.800Z,83.85
2017-10-19T02:04:42.461Z,83.94
2017-10-19T02:07:10.063Z,83.92
2017-10-19T02:09:37.723Z,84.30
2017-10-19T02:12:05.438Z,84.39
2017-10-19T02:14:33.067Z,84.41
2017-10-19T02:17:00.675Z,84.40
2017-10-19T02:19:28.328Z,84.61
2017-10-19T02:21:55.942Z,84.32
2017-10-19T02:24:23.599Z,84.19
2017-10-19T02:26:51.317Z,84.36
2017-10-19T02:29:18.921Z,84.55
2017-10-19T02:31:46.527Z,84.63
2017-10-19T02:34:14.193Z,84.91
2017-10-19T02:36:41.805Z,84.68
2017-10-19T02:39:09.504Z,84.18
2017-10-19T02:41:37.154Z,84.39
2017-10-19T02:44:04.763Z,84.34
2017-10-19T02:46:32.370Z,84.69
2017-10-19T02:49:00.027Z,84.65
2017-10-19T02:51:27.634Z,84.22
2017-10-19T02:53:55.255Z,84.12
2017-10-19T02:56:22.995Z,84.23
2017-10-19T02:58:50.622Z,84.44
2017-10-19T03:01:18.228Z,85.20
2017-10-19T03:03:45.968Z,85.79
2017-10-19T03:06:13.646Z,85.41
2017-10-19T03:08:41.252Z,85.80
2017-10-19T03:11:08.931Z,86.36
2017-10-19T03:13:36.538Z,86.08
2017-10-19T03:16:04.212Z,85.64
2017-10-19T03:18:31.870Z,85.16
2017-10-19T03:20:59.482Z,84.91
2017-10-19T03:23:27.079Z,85.58
2017-10-19T03:25:54.719Z,85.87
2017-10-19T03:28:22.331Z,86.37
2017-10-19T03:30:50.012Z,86.31
2017-10-19T03:33:17.667Z,86.06
2017-10-19T03:35:45.287Z,85.65
2017-10-19T03:38:13.270Z,85.52
2017-10-19T03:40:40.919Z,85.60
2017-10-19T03:43:08.583Z,85.38
2017-10-19T03:45:36.247Z,85.60
2017-10-19T03:48:03.910Z,86.28
2017-10-19T03:50:31.593Z,86.86
2017-10-19T03:52:59.254Z,86.71
2017-10-19T03:55:26.891Z,86.59
2017-10-19T03:57:54.546Z,86.66
2017-10-19T04:00:22.223Z,86.47
2017-10-19T04:02:49.867Z,86.37
2017-10-19T04:05:17.467Z,86.78
2017-10-19T04:07:45.183Z,86.69
2017-10-19T04:10:12.841Z,86.32
2017-10-19T04:12:41.282Z,86.69
2017-10-19T04:15:08.892Z,86.82
2017-10-19T04:17:36.535Z,86.42
2017-10-19T04:20:04.127Z,86.23
2017-10-19T04:22:31.718Z,86.12
2017-10-19T04:24:59.424Z,86.04
2017-10-19T04:27:27.027Z,86.54
2017-10-19T04:29:54.687Z,86.55
2017-10-19T04:32:22.383Z,86.36
2017-10-19T04:34:49.990Z,86.28
2017-10-19T04:37:17.587Z,86.51
2017-10-19T04:39:45.288Z,86.56
2017-10-19T04:42:12.882Z,86.32
2017-10-19T04:44:40.547Z,86.29
2017-10-19T04:47:08.268Z,85.68
2017-10-19T04:49:35.987Z,85.67
2017-10-19T04:52:03.590Z,85.39
2017-10-19T04:54:31.252Z,85.53
2017-10-19T04:56:58.931Z,85.53
2017-10-19T04:59:26.545Z,85.41
2017-10-19T05:01:54.260Z,85.14
2017-10-19T05:04:21.972Z,84.60
2017-10-19T05:06:49.635Z,84.16
2017-10-19T05:09:17.344Z,83.78
2017-10-19T05:11:45.063Z,83.07
2017-10-19T05:14:12.688Z,82.75
2017-10-19T05:16:40.381Z,82.51
2017-10-19T05:19:08.055Z,82.31
2017-10-19T05:21:35.675Z,81.89
2017-10-19T05:24:03.335Z,81.40
2017-10-19T05:26:30.940Z,80.49
2017-10-19T05:28:58.544Z,79.47
2017-10-19T05:31:26.348Z,78.57
2017-10-19T05:33:54.007Z,78.14
2017-10-19T05:36:21.611Z,77.78
2017-10-19T05:38:49.267Z,78.26
2017-10-19T05:41:16.875Z,77.72
2017-10-19T05:43:44.478Z,77.72
2017-10-19T05:46:12.191Z,76.97
2017-10-19T05:48:39.797Z,76.59
2017-10-19T05:51:07.415Z,76.54
2017-10-19T05:53:35.133Z,76.42
2017-10-19T05:56:02.754Z,76.62
2017-10-19T05:58:30.354Z,75.97
2017-10-19T06:00:58.072Z,76.24
2017-10-19T06:03:25.687Z,75.87
2017-10-19T06:05:53.291Z,76.25
2017-10-19T06:08:20.954Z,75.91
2017-10-19T06:10:48.615Z,76.02
2017-10-19T06:13:16.280Z,75.96
2017-10-19T06:15:43.984Z,75.47
2017-10-19T06:18:11.587Z,74.81
2017-10-19T06:20:39.191Z,73.96
2017-10-19T06:23:06.843Z,73.34
2017-10-19T06:25:34.512Z,73.17
2017-10-19T06:28:02.125Z,73.50
2017-10-19T06:30:29.847Z,72.79
2017-10-19T06:32:57.520Z,72.58
2017-10-19T06:35:25.179Z,73.28
2017-10-19T06:37:52.831Z,72.15
2017-10-19T06:40:20.438Z,72.46
2017-10-19T06:42:48.110Z,72.24
2017-10-19T06:45:15.856Z,72.75
2017-10-19T06:47:43.484Z,73.04
2017-10-19T06:50:11.115Z,71.57
2017-10-19T06:52:38.800Z,73.17
2017-10-19T06:55:06.404Z,71.34
2017-10-19T06:57:34.021Z,72.03
2017-10-19T07:00:01.685Z,70.93
2017-10-19T07:02:29.298Z,70.85
2017-10-19T07:04:56.967Z,70.37
2017-10-19T07:07:24.680Z,71.38
2017-10-19T07:09:52.283Z,71.96
2017-10-19T07:12:19.887Z,70.08
2017-10-19T07:14:47.704Z,70.50
2017-10-19T07:17:15.316Z,70.61
2017-10-19T07:19:42.927Z,69.02
2017-10-19T07:22:10.591Z,68.48
2017-10-19T07:24:38.199Z,68.43
2017-10-19T07:27:05.872Z,68.36
2017-10-19T07:29:33.580Z,67.68
2017-10-19T07:32:01.195Z,67.89
2017-10-19T07:34:28.799Z,69.07
2017-10-19T07:36:56.462Z,68.97
2017-10-19T07:39:24.071Z,67.87
2017-10-19T07:41:51.744Z,66.81
2017-10-19T07:44:19.404Z,67.01
2017-10-19T07:46:47.007Z,66.82
2017-10-19T07:49:14.619Z,66.66
2017-10-19T07:51:42.341Z,66.97
2017-10-19T07:54:09.962Z,68.25
2017-10-19T07:56:37.617Z,66.15
2017-10-19T07:59:05.332Z,66.24
2017-10-19T08:01:32.935Z,64.65
2017-10-19T08:04:00.540Z,63.80
2017-10-19T08:06:28.186Z,63.50
2017-10-19T08:08:55.791Z,63.08
2017-10-19T08:11:23.396Z,63.74
2017-10-19T08:13:51.172Z,62.95
2017-10-19T08:16:18.835Z,62.44
2017-10-19T08:18:46.440Z,63.26
2017-10-19T08:21:14.100Z,62.81
2017-10-19T08:23:41.764Z,62.02
2017-10-19T08:26:09.376Z,61.74
2017-10-19T08:28:37.131Z,61.66
2017-10-19T08:31:04.795Z,61.01
2017-10-19T08:33:32.463Z,59.38
2017-10-19T08:36:00.120Z,58.76
2017-10-19T08:38:27.788Z,59.36
2017-10-19T08:40:55.451Z,59.76
2017-10-19T08:43:23.298Z,58.68
2017-10-19T08:45:50.960Z,58.33
2017-10-19T08:48:18.623Z,57.49
2017-10-19T08:50:46.342Z,57.34
2017-10-19T08:53:13.943Z,56.68
2017-10-19T08:55:41.545Z,56.85
2017-10-19T08:58:09.211Z,55.10
2017-10-19T09:00:36.810Z,54.26
2017-10-19T09:03:04.488Z,54.47
2017-10-19T09:05:32.261Z,53.66
2017-10-19T09:07:59.891Z,52.94
2017-10-19T09:10:27.495Z,51.63
2017-10-19T09:12:55.215Z,51.77
2017-10-19T09:15:22.814Z,50.45
2017-10-19T09:17:50.473Z,50.42
2017-10-19T09:20:18.195Z,50.62
2017-10-19T09:22:45.814Z,50.16
2017-10-19T09:25:13.387Z,50.62
2017-10-19T09:27:41.039Z,50.84
2017-10-19T09:30:08.643Z,50.74
2017-10-19T09:32:36.242Z,50.60
2017-10-19T09:35:03.899Z,51.85
2017-10-19T09:37:31.640Z,50.59
2017-10-19T09:39:59.355Z,51.13
2017-10-19T09:42:27.059Z,50.89
2017-10-19T09:44:54.727Z,51.03
2017-10-19T09:47:22.388Z,49.95
2017-10-19T09:49:50.044Z,50.61
2017-10-19T09:52:17.642Z,49.72
2017-10-19T09:54:45.243Z,49.86
2017-10-19T09:57:12.953Z,50.09
2017-10-19T09:59:40.610Z,50.50
2017-10-19T10:02:08.207Z,50.96
2017-10-19T10:04:35.854Z,50.11
2017-10-19T10:07:03.516Z,49.55
2017-10-19T10:09:31.118Z,50.82
2017-10-19T10:11:58.766Z,49.71
2017-10-19T10:14:26.524Z,49.29
2017-10-19T10:16:54.187Z,49.83
2017-10-19T10:19:21.840Z,49.30
2017-10-19T10:21:49.470Z,48.77
2017-10-19T10:24:17.067Z,48.85
2017-10-19T10:26:44.789Z,48.22
2017-10-19T10:29:12.448Z,47.58
2017-10-19T10:31:40.067Z,47.97
2017-10-19T10:34:07.730Z,47.31
2017-10-19T10:36:35.335Z,47.61
2017-10-19T10:39:02.951Z,47.29
2017-10-19T10:41:30.680Z,45.58
2017-10-19T10:43:58.344Z,44.72
2017-10-19T10:46:26.016Z,44.17
2017-10-19T10:48:53.740Z,43.10
2017-10-19T10:51:21.365Z,41.71
2017-10-19T10:53:49.051Z,42.48
2017-10-19T10:56:16.726Z,42.54
2017-10-19T10:58:44.346Z,43.25
2017-10-19T11:01:11.954Z,43.61
2017-10-19T11:03:39.687Z,43.64
2017-10-19T11:06:07.320Z,43.09
2017-10-19T11:08:34.939Z,44.66
2017-10-19T11:11:02.608Z,44.37
2017-10-19T11:13:30.289Z,44.35
2017-10-19T11:15:57.951Z,44.58
2017-10-19T11:18:25.723Z,43.83
2017-10-19T11:20:53.331Z,42.70
2017-10-19T11:23:21.005Z,41.70
2017-10-19T11:25:48.737Z,39.38
2017-10-19T11:28:16.344Z,37.49
2017-10-19T11:30:43.954Z,36.47
2017-10-19T11:33:11.690Z,35.38
2017-10-19T11:35:39.303Z,35.55
2017-10-19T11:38:06.912Z,33.92
2017-10-19T11:40:34.564Z,33.95
2017-10-19T11:43:02.174Z,33.55
2017-10-19T11:45:29.788Z,33.09
2017-10-19T11:47:57.436Z,31.83
2017-10-19T11:50:25.108Z,32.22
2017-10-19T11:52:52.780Z,32.44
2017-10-19T11:55:20.512Z,33.54
2017-10-19T11:57:48.128Z,34.94
2017-10-19T12:00:15.791Z,36.63
2017-10-19T12:02:43.453Z,37.03
2017-10-19T12:05:11.063Z,38.14
2017-10-19T12:07:38.726Z,39.36
2017-10-19T12:10:06.376Z,40.68
2017-10-19T12:12:33.979Z,40.71
2017-10-19T12:15:01.636Z,41.44
2017-10-19T12:17:29.279Z,42.59
2017-10-19T12:19:56.885Z,42.98
2017-10-19T12:22:24.492Z,42.95
2017-10-19T12:24:52.143Z,43.85
2017-10-19T12:27:19.764Z,44.88
2017-10-19T12:29:47.423Z,44.81
2017-10-19T12:32:15.152Z,45.55
2017-10-19T12:34:42.819Z,45.59
2017-10-19T12:37:10.417Z,45.58
2017-10-19T12:39:38.080Z,45.46
2017-10-19T12:42:05.695Z,45.55
2017-10-19T12:44:33.346Z,45.42
2017-10-19T12:47:01.015Z,45.04
2017-10-19T12:49:28.625Z,45.35
2017-10-19T12:51:56.235Z,45.11
2017-10-19T12:54:23.994Z,44.60
2017-10-19T12:56:51.663Z,44.73
2017-10-19T12:59:19.266Z,43.01
2017-10-19T13:01:47.001Z,43.42
2017-10-19T13:04:14.611Z,42.93
2017-10-19T13:06:42.267Z,43.44
2017-10-19T13:09:09.978Z,43.06
2017-10-19T13:11:37.583Z,43.19
2017-10-19T13:14:05.199Z,43.56
2017-10-19T13:16:32.851Z,44.14
2017-10-19T13:19:00.513Z,43.80
2017-10-19T13:21:28.111Z,44.23
2017-10-19T13:23:55.832Z,44.15
2017-10-19T13:26:23.447Z,44.19
2017-10-19T13:28:51.066Z,44.92
2017-10-19T13:31:18.713Z,45.31
2017-10-19T13:33:46.322Z,45.60
2017-10-19T13:36:13.939Z,45.68
2017-10-19T13:38:41.703Z,45.93
2017-10-19T13:41:09.315Z,46.45
2017-10-19T13:43:36.972Z,46.71
2017-10-19T13:46:04.632Z,46.97
2017-10-19T13:48:32.281Z,47.75
2017-10-19T13:50:59.960Z,48.24
2017-10-19T13:53:27.674Z,48.37
2017-10-19T13:55:55.276Z,49.14
2017-10-19T13:58:22.876Z,48.95
2017-10-19T14:00:50.679Z,49.26
2017-10-19T14:03:18.343Z,49.28
2017-10-19T14:05:45.943Z,50.21
2017-10-19T14:08:13.591Z,50.70
2017-10-19T14:10:41.195Z,51.43
2017-10-19T14:13:08.795Z,51.49
2017-10-19T14:15:36.483Z,52.21
2017-10-19T14:18:04.195Z,53.10
2017-10-19T14:22:56.453Z,54.50
2017-10-19T14:25:24.120Z,54.97
2017-10-19T14:27:51.888Z,55.85
2017-10-19T14:30:19.606Z,56.80
2017-10-19T14:32:47.305Z,57.74
2017-10-19T14:35:14.960Z,58.42
2017-10-19T14:37:42.746Z,59.16
2017-10-19T14:40:10.497Z,60.01
2017-10-19T14:42:38.150Z,60.26
2017-10-19T14:45:05.851Z,60.97
2017-10-19T14:47:33.585Z,61.81
2017-10-19T14:50:01.313Z,62.27
2017-10-19T14:52:28.979Z,62.50
2017-10-19T14:54:56.648Z,63.21
2017-10-19T14:57:24.311Z,63.59
2017-10-19T14:59:51.961Z,64.06
2017-10-19T15:02:19.628Z,64.29
2017-10-19T15:04:47.296Z,64.40
2017-10-19T15:07:15.093Z,64.76
2017-10-19T15:09:42.695Z,65.38
2017-10-19T15:12:10.401Z,65.73
2017-10-19T15:14:38.166Z,65.04
2017-10-19T15:17:05.939Z,65.28
2017-10-19T15:19:33.547Z,65.37
2017-10-19T15:22:01.564Z,65.06
2017-10-19T15:24:29.334Z,64.73
2017-10-19T15:26:57.011Z,64.90
2017-10-19T15:29:24.760Z,65.18
2017-10-19T15:31:52.360Z,65.65
2017-10-19T15:34:20.161Z,66.27
2017-10-19T15:36:48.263Z,66.60
2017-10-19T15:39:15.859Z,66.88
2017-10-19T15:41:43.516Z,66.94
2017-10-19T15:44:11.179Z,67.20
2017-10-19T15:46:38.839Z,67.34
2017-10-19T15:49:06.510Z,67.56
2017-10-19T15:51:34.164Z,67.70
2017-10-19T15:54:01.767Z,67.91
2017-10-19T15:56:29.366Z,68.25
2017-10-19T15:58:57.083Z,68.19
2017-10-19T16:01:24.687Z,68.05
2017-10-19T16:03:52.327Z,68.34
2017-10-19T16:06:19.979Z,68.59
2017-10-19T16:08:47.597Z,68.82
2017-10-19T16:11:15.269Z,69.17
2017-10-19T16:13:42.971Z,69.23
2017-10-19T16:16:10.580Z,69.14
2017-10-19T16:18:38.183Z,69.13
2017-10-19T16:21:05.835Z,69.26
2017-10-19T16:23:33.431Z,69.64
2017-10-19T16:26:01.036Z,69.48
2017-10-19T16:28:28.691Z,69.50
2017-10-19T16:30:56.291Z,69.73
2017-10-19T16:33:24.008Z,69.87
2017-10-19T16:35:51.651Z,69.30
2017-10-19T16:38:19.312Z,69.21
2017-10-19T16:40:46.975Z,69.26
2017-10-19T16:43:14.634Z,69.21
2017-10-19T16:45:42.240Z,69.16
2017-10-19T16:48:09.875Z,69.37
2017-10-19T16:50:37.591Z,69.32
2017-10-19T16:53:05.208Z,69.14
2017-10-19T16:55:32.819Z,69.25
2017-10-19T16:58:00.499Z,69.31
2017-10-19T17:00:28.113Z,69.27
2017-10-19T17:02:55.836Z,69.41
2017-10-19T17:05:23.584Z,69.13
2017-10-19T17:07:51.243Z,69.53
2017-10-19T17:10:18.852Z,68.78
2017-10-19T17:12:46.660Z,68.83
2017-10-19T17:15:14.331Z,68.89
2017-10-19T17:17:42.000Z,68.84
2017-10-19T17:20:09.723Z,69.22
2017-10-19T17:22:37.337Z,69.08
2017-10-19T17:25:04.956Z,68.98
2017-10-19T17:27:32.619Z,69.23
2017-10-19T17:30:00.231Z,69.54
2017-10-19T17:32:27.843Z,69.54
2017-10-19T17:34:55.499Z,69.77
2017-10-19T17:37:23.110Z,69.99
2017-10-19T17:39:51.123Z,70.52
2017-10-19T17:42:18.770Z,70.67
2017-10-19T17:44:46.436Z,70.94
2017-10-19T17:47:14.047Z,71.24
2017-10-19T17:49:41.695Z,71.29
2017-10-19T17:52:09.302Z,71.76
2017-10-19T17:54:36.913Z,71.94
2017-10-19T17:57:06.008Z,71.88
2017-10-19T17:59:33.615Z,71.97
2017-10-19T18:02:01.211Z,71.80
2017-10-19T18:04:28.871Z,72.03
2017-10-19T18:06:56.552Z,72.16
2017-10-19T18:09:24.164Z,72.39
2017-10-19T18:11:51.823Z,72.26
2017-10-19T18:14:19.435Z,72.95
2017-10-19T18:16:47.105Z,73.33
2017-10-19T18:19:14.815Z,73.53
2017-10-19T18:21:42.427Z,74.10
2017-10-19T18:24:10.032Z,74.22
2017-10-19T18:26:37.760Z,74.81
2017-10-19T18:29:05.439Z,74.98
2017-10-19T18:31:33.048Z,75.21
2017-10-19T18:34:00.759Z,75.44
2017-10-19T18:36:28.484Z,75.65
2017-10-19T18:38:56.087Z,75.75
2017-10-19T18:41:23.753Z,75.64
2017-10-19T18:43:51.368Z,75.50
2017-10-19T18:46:18.979Z,75.49
2017-10-19T18:48:46.701Z,75.60
2017-10-19T18:51:14.318Z,75.72
2017-10-19T18:53:41.931Z,75.69
2017-10-19T18:56:09.571Z,75.66
2017-10-19T18:58:37.239Z,76.00
2017-10-19T19:01:04.891Z,76.19
2017-10-19T19:03:32.544Z,76.63
2017-10-19T19:06:00.220Z,76.99
2017-10-19T19:08:27.835Z,77.05
2017-10-19T19:10:55.475Z,77.40
2017-10-19T19:13:23.083Z,77.50
2017-10-19T19:15:50.743Z,77.94
2017-10-19T19:18:18.455Z,78.05
2017-10-19T19:20:46.123Z,77.62
2017-10-19T19:23:13.723Z,77.52
2017-10-19T19:25:41.375Z,77.53
2017-10-19T19:28:08.989Z,77.27
2017-10-19T19:30:36.599Z,77.48
2017-10-19T19:33:04.244Z,77.69
2017-10-19T19:35:31.908Z,77.84
2017-10-19T19:37:59.576Z,78.25
2017-10-19T19:40:27.257Z,78.58
2017-10-19T19:42:54.867Z,78.65
2017-10-19T19:45:22.475Z,78.66
2017-10-19T19:47:50.199Z,79.02
2017-10-19T19:50:17.799Z,78.90
2017-10-19T19:52:45.464Z,78.71
2017-10-19T19:55:13.128Z,78.79
2017-10-19T19:57:40.792Z,78.95
2017-10-19T20:00:08.394Z,79.19
2017-10-19T20:02:36.134Z,79.37
2017-10-19T20:05:03.799Z,79.42
2017-10-19T20:07:31.411Z,79.79
2017-10-19T20:09:59.059Z,79.63
2017-10-19T20:12:26.678Z,79.95
2017-10-19T20:14:54.346Z,80.07
2017-10-19T20:17:22.016Z,80.08
2017-10-19T20:19:49.701Z,80.11
2017-10-19T20:22:17.363Z,79.91
2017-10-19T20:24:45.011Z,80.21
2017-10-19T20:27:12.755Z,80.34
2017-10-19T20:29:40.363Z,80.74
2017-10-19T20:32:08.067Z,80.65
2017-10-19T20:34:35.671Z,80.73
2017-10-19T20:37:03.343Z,80.70
2017-10-19T20:39:31.055Z,80.75
2017-10-19T20:41:58.719Z,80.71
2017-10-19T20:44:26.379Z,80.84
2017-10-19T20:46:54.096Z,80.85
2017-10-19T20:49:21.756Z,81.04
2017-10-19T20:51:49.368Z,80.57
2017-10-19T20:54:17.112Z,80.77
2017-10-19T20:56:44.777Z,81.07
2017-10-19T20:59:12.382Z,81.40
2017-10-19T21:01:40.038Z,81.79
2017-10-19T21:04:07.651Z,81.80
2017-10-19T21:06:35.311Z,81.96
2017-10-19T21:09:02.977Z,81.92
2017-10-19T21:11:30.588Z,82.00
2017-10-19T21:13:58.191Z,82.13
2017-10-19T21:16:25.951Z,82.13
2017-10-19T21:18:53.571Z,82.02
2017-10-19T21:21:21.247Z,81.69
2017-10-19T21:23:48.908Z,81.34
2017-10-19T21:26:16.519Z,81.70
2017-10-19T21:28:44.184Z,82.28
2017-10-19T21:31:11.839Z,82.56
2017-10-19T21:33:39.443Z,82.49
2017-10-19T21:36:07.047Z,82.56
2017-10-19T21:38:34.764Z,82.46
2017-10-19T21:41:02.375Z,82.60
2017-10-19T21:43:30.036Z,82.31
2017-10-19T21:45:57.696Z,82.27
2017-10-19T21:48:25.312Z,82.68
2017-10-19T21:50:52.915Z,82.93
2017-10-19T21:53:20.592Z,82.84
2017-10-19T21:55:48.211Z,82.69
2017-10-19T21:58:15.823Z,82.93
2017-10-19T22:00:43.748Z,82.80
2017-10-19T22:03:11.352Z,82.96
2017-10-19T22:05:39.027Z,83.15
2017-10-19T22:08:06.687Z,83.17
2017-10-19T22:10:34.410Z,83.20
2017-10-19T22:13:02.027Z,83.35
2017-10-19T22:15:29.755Z,83.39
2017-10-19T22:17:57.380Z,84.05
2017-10-19T22:20:25.012Z,84.42
2017-10-19T22:22:52.745Z,84.47
2017-10-19T22:25:20.419Z,84.42
2017-10-19T22:27:48.035Z,84.44
2017-10-19T22:30:15.770Z,84.79
2017-10-19T22:32:43.380Z,85.04
2017-10-19T22:35:11.056Z,84.89
2017-10-19T22:37:38.716Z,85.10
2017-10-19T22:40:06.388Z,84.94
2017-10-19T22:42:34.008Z,85.14
2017-10-19T22:45:01.672Z,85.38
2017-10-19T22:47:29.293Z,85.45
2017-10-19T22:49:56.903Z,85.45
2017-10-19T22:52:24.599Z,85.53
2017-10-19T22:54:52.223Z,85.76
2017-10-19T22:57:19.834Z,85.89
2017-10-19T22:59:47.483Z,85.98
2017-10-19T23:02:15.087Z,85.93
2017-10-19T23:04:42.699Z,85.68
2017-10-19T23:07:10.415Z,85.56
2017-10-19T23:09:38.075Z,85.64
2017-10-19T23:12:05.739Z,85.82
2017-10-19T23:14:33.379Z,85.92
2017-10-19T23:17:01.024Z,85.94
2017-10-19T23:19:28.691Z,86.05
2017-10-19T23:21:56.347Z,86.28
2017-10-19T23:24:24.012Z,86.41
2017-10-19T23:26:51.667Z,86.70
2017-10-19T23:29:19.320Z,86.74
2017-10-19T23:31:46.919Z,86.77
2017-10-19T23:34:14.531Z,86.87
2017-10-19T23:36:42.238Z,86.82
2017-10-19T23:39:09.852Z,86.89
2017-10-19T23:41:37.455Z,87.03
2017-10-19T23:44:05.118Z,86.91
2017-10-19T23:46:32.723Z,87.01
2017-10-19T23:49:00.383Z,87.14
2017-10-19T23:51:28.088Z,87.30
2017-10-19T23:53:55.695Z,87.49
2017-10-19T23:56:23.302Z,87.50
2017-10-19T23:58:51.011Z,87.36
